Time;durP1;ratioP1;P1;durP2;ratioP2;P2;SDS_P1;SDS_P2;PMS_P1;PMS_P2;Temp;Humidity;BMP_temperature;BMP_pressure;BME280_temperature;BME280_humidity;BME280_pressure;Samples;Min_cycle;Max_cycle;Signal;HPM_P1;HPM_P2
2023/05/30 00:00:13;;;;;;;24.17;21.70;;;;;;;;;;5055501;28;20447;-83
2023/05/30 00:02:40;;;;;;;22.80;20.83;;;;;;;;;;5056093;28;20443;-83
2023/05/30 00:05:07;;;;;;;24.83;22.27;;;;;;;;;;5055032;28;21057;-83
2023/05/30 00:07:34;;;;;;;24.40;21.80;;;;;;;;;;5055528;28;20447;-83
2023/05/30 00:10:01;;;;;;;24.27;21.90;;;;;;;;;;5055288;28;20456;-83
2023/05/30 00:12:28;;;;;;;25.67;23.07;;;;;;;;;;5055184;28;20541;-84
2023/05/30 00:14:57;;;;;;;22.90;20.80;;;;;;;;;;5054768;28;20513;-83
2023/05/30 00:17:26;;;;;;;24.33;22.00;;;;;;;;;;5054756;28;20436;-82
2023/05/30 00:19:54;;;;;;;22.80;20.80;;;;;;;;;;5055350;28;20453;-83
2023/05/30 00:22:22;;;;;;;24.70;22.77;;;;;;;;;;5055025;28;20490;-83
2023/05/30 00:24:49;;;;;;;24.20;21.90;;;;;;;;;;5054241;28;20979;-82
2023/05/30 00:27:17;;;;;;;24.60;22.17;;;;;;;;;;5054217;28;20493;-83
2023/05/30 00:29:45;;;;;;;31.77;23.40;;;;;;;;;;5054538;28;20536;-83
2023/05/30 00:32:12;;;;;;;24.47;22.20;;;;;;;;;;5054791;28;20790;-84
2023/05/30 00:34:40;;;;;;;24.10;21.53;;;;;;;;;;5055110;28;20455;-83
2023/05/30 00:37:08;;;;;;;24.83;22.37;;;;;;;;;;5053895;28;20489;-84
2023/05/30 00:39:35;;;;;;;24.80;22.60;;;;;;;;;;5054169;28;20533;-83
2023/05/30 00:42:02;;;;;;;24.37;22.20;;;;;;;;;;5054454;28;20497;-83
2023/05/30 00:44:29;;;;;;;24.87;22.33;;;;;;;;;;5054645;28;20457;-83
2023/05/30 00:46:57;;;;;;;24.90;22.40;;;;;;;;;;5054145;28;20471;-82
2023/05/30 00:49:24;;;;;;;23.13;21.23;;;;;;;;;;5054907;28;20521;-83
2023/05/30 00:51:52;;;;;;;26.90;22.53;;;;;;;;;;5054643;28;20810;-81
2023/05/30 00:54:20;;;;;;;24.33;22.57;;;;;;;;;;5054467;28;20451;-83
2023/05/30 00:56:47;;;;;;;23.60;22.00;;;;;;;;;;5053479;28;20493;-83
2023/05/30 00:59:15;;;;;;;24.93;22.57;;;;;;;;;;5054435;28;20508;-83
2023/05/30 01:01:43;;;;;;;24.43;21.67;;;;;;;;;;5054598;28;20443;-83
2023/05/30 01:04:10;;;;;;;23.97;21.53;;;;;;;;;;5054291;28;20490;-83
2023/05/30 01:06:37;;;;;;;23.50;21.47;;;;;;;;;;5053286;28;20963;-83
2023/05/30 01:09:06;;;;;;;22.70;21.00;;;;;;;;;;5054165;28;20875;-84
2023/05/30 01:11:38;;;;;;;23.80;21.70;;;;;;;;;;5054329;28;20927;-83
2023/05/30 01:14:10;;;;;;;23.83;21.73;;;;;;;;;;5054108;28;20446;-83
2023/05/30 01:16:41;;;;;;;24.10;22.03;;;;;;;;;;5053454;28;20489;-83
2023/05/30 01:19:16;;;;;;;24.47;22.07;;;;;;;;;;5054105;28;20435;-83
2023/05/30 01:21:44;;;;;;;31.60;22.20;;;;;;;;;;5053997;28;20442;-83
2023/05/30 01:24:17;;;;;;;24.13;21.53;;;;;;;;;;5053960;28;20497;-82
2023/05/30 01:27:01;;;;;;;22.93;21.10;;;;;;;;;;5053783;28;20481;-83
2023/05/30 01:29:31;;;;;;;23.20;20.50;;;;;;;;;;5054051;28;20474;-83
2023/05/30 01:31:59;;;;;;;23.33;21.53;;;;;;;;;;5054519;28;20477;-81
2023/05/30 01:34:26;;;;;;;23.57;21.73;;;;;;;;;;5053946;28;20509;-83
2023/05/30 01:36:53;;;;;;;26.50;22.93;;;;;;;;;;5054896;28;20994;-82
2023/05/30 01:39:20;;;;;;;23.10;21.30;;;;;;;;;;5056715;28;20564;-82
2023/05/30 01:41:50;;;;;;;23.50;21.67;;;;;;;;;;5057555;28;20504;-82
2023/05/30 01:44:24;;;;;;;23.87;21.50;;;;;;;;;;5057902;28;20536;-83
2023/05/30 01:47:00;;;;;;;23.87;21.47;;;;;;;;;;5057431;28;20776;-82
2023/05/30 01:49:30;;;;;;;24.03;22.00;;;;;;;;;;5057309;28;20470;-83
2023/05/30 01:51:59;;;;;;;24.27;21.87;;;;;;;;;;5057611;28;20485;-82
2023/05/30 01:54:29;;;;;;;24.17;22.10;;;;;;;;;;5057556;28;20473;-82
2023/05/30 01:56:58;;;;;;;23.80;21.90;;;;;;;;;;5059050;28;20459;-84
2023/05/30 01:59:27;;;;;;;23.80;21.60;;;;;;;;;;5061093;28;20466;-83
2023/05/30 02:01:56;;;;;;;24.43;22.47;;;;;;;;;;5060061;28;20458;-83
2023/05/30 02:04:23;;;;;;;23.73;21.20;;;;;;;;;;5059586;28;20517;-82
2023/05/30 02:06:50;;;;;;;22.40;20.63;;;;;;;;;;5059473;28;20442;-83
2023/05/30 02:09:17;;;;;;;24.40;22.30;;;;;;;;;;5059610;28;20457;-83
2023/05/30 02:11:44;;;;;;;23.00;20.80;;;;;;;;;;5059356;28;20459;-83
2023/05/30 02:14:11;;;;;;;25.33;22.70;;;;;;;;;;5059496;28;20481;-84
2023/05/30 02:16:38;;;;;;;23.70;21.47;;;;;;;;;;5058827;28;20501;-83
2023/05/30 02:19:08;;;;;;;24.57;22.13;;;;;;;;;;5058672;28;20451;-83
2023/05/30 02:21:35;;;;;;;22.90;21.10;;;;;;;;;;5058370;28;20979;-84
2023/05/30 02:24:02;;;;;;;24.53;21.87;;;;;;;;;;5058285;28;20500;-83
2023/05/30 02:26:29;;;;;;;26.33;23.93;;;;;;;;;;5058338;28;20508;-82
2023/05/30 02:28:56;;;;;;;24.10;21.87;;;;;;;;;;5058615;28;20421;-82
2023/05/30 02:31:23;;;;;;;23.83;21.70;;;;;;;;;;5057561;28;20501;-83
2023/05/30 02:33:50;;;;;;;24.03;21.73;;;;;;;;;;5058298;28;20454;-82
2023/05/30 02:36:19;;;;;;;23.10;21.40;;;;;;;;;;5057400;28;20993;-83
2023/05/30 02:38:46;;;;;;;23.23;21.00;;;;;;;;;;5057920;28;20513;-83
2023/05/30 02:41:13;;;;;;;22.90;20.20;;;;;;;;;;5057163;28;20478;-81
2023/05/30 02:43:41;;;;;;;22.80;20.87;;;;;;;;;;5057589;28;20868;-82
2023/05/30 02:46:08;;;;;;;24.00;22.40;;;;;;;;;;5056511;28;20992;-82
2023/05/30 02:48:35;;;;;;;24.47;22.57;;;;;;;;;;5057294;28;20785;-82
2023/05/30 02:51:02;;;;;;;22.37;20.60;;;;;;;;;;5057059;28;20524;-83
2023/05/30 02:53:30;;;;;;;26.47;23.47;;;;;;;;;;5056718;28;20525;-82
2023/05/30 02:55:57;;;;;;;24.23;21.73;;;;;;;;;;5056213;28;20554;-83
2023/05/30 02:58:24;;;;;;;24.37;22.60;;;;;;;;;;5056558;28;20425;-82
2023/05/30 03:00:52;;;;;;;24.70;22.37;;;;;;;;;;5056749;28;20471;-82
2023/05/30 03:03:19;;;;;;;25.07;22.73;;;;;;;;;;5056030;28;20532;-81
2023/05/30 03:05:47;;;;;;;25.13;23.00;;;;;;;;;;5056241;28;20490;-82
2023/05/30 03:08:14;;;;;;;25.03;22.50;;;;;;;;;;5056466;28;20450;-82
2023/05/30 03:10:43;;;;;;;24.50;22.60;;;;;;;;;;5056030;28;20497;-83
2023/05/30 03:13:10;;;;;;;24.83;22.43;;;;;;;;;;5055493;28;21020;-82
2023/05/30 03:15:39;;;;;;;24.57;22.10;;;;;;;;;;5055954;28;20593;-82
2023/05/30 03:18:06;;;;;;;25.00;22.40;;;;;;;;;;5056184;28;20461;-83
2023/05/30 03:20:34;;;;;;;23.60;21.60;;;;;;;;;;5055631;28;20474;-82
2023/05/30 03:23:01;;;;;;;27.60;21.67;;;;;;;;;;5054977;28;20474;-78
2023/05/30 03:25:28;;;;;;;24.43;22.17;;;;;;;;;;5055312;28;20450;-78
2023/05/30 03:27:57;;;;;;;23.50;21.43;;;;;;;;;;5054598;28;20951;-78
2023/05/30 03:30:26;;;;;;;22.27;20.67;;;;;;;;;;5054686;28;20528;-78
2023/05/30 03:32:54;;;;;;;24.47;22.37;;;;;;;;;;5055200;28;20451;-78
2023/05/30 03:35:21;;;;;;;23.47;21.67;;;;;;;;;;5054352;28;20879;-79
2023/05/30 03:37:48;;;;;;;23.77;21.67;;;;;;;;;;5053687;28;20454;-78
2023/05/30 03:40:17;;;;;;;23.53;21.73;;;;;;;;;;5054990;28;20560;-78
2023/05/30 03:42:44;;;;;;;22.90;21.20;;;;;;;;;;5054867;28;20447;-79
2023/05/30 03:45:13;;;;;;;23.23;21.07;;;;;;;;;;5054027;28;21037;-78
2023/05/30 03:47:40;;;;;;;23.20;21.13;;;;;;;;;;5054335;28;20451;-78
2023/05/30 03:50:07;;;;;;;22.73;21.00;;;;;;;;;;5054161;28;20466;-78
2023/05/30 03:52:34;;;;;;;25.03;23.00;;;;;;;;;;5054674;28;20447;-78
2023/05/30 03:55:01;;;;;;;23.53;21.40;;;;;;;;;;5069760;28;20474;-78
2023/05/30 03:57:28;;;;;;;25.60;23.30;;;;;;;;;;5073647;28;20474;-78
2023/05/30 03:59:55;;;;;;;23.67;21.23;;;;;;;;;;5070256;28;20523;-79
2023/05/30 04:02:23;;;;;;;23.60;21.20;;;;;;;;;;5054503;28;20435;-80
2023/05/30 04:04:52;;;;;;;24.77;20.43;;;;;;;;;;5054215;28;20532;-79
2023/05/30 04:07:20;;;;;;;23.33;21.23;;;;;;;;;;5053968;28;20425;-78
2023/05/30 04:09:47;;;;;;;25.70;23.30;;;;;;;;;;5054376;28;20969;-79
2023/05/30 04:12:14;;;;;;;21.37;19.63;;;;;;;;;;5054695;28;20436;-78
2023/05/30 04:14:41;;;;;;;23.53;21.53;;;;;;;;;;5054637;28;20470;-78
2023/05/30 04:17:08;;;;;;;22.80;20.97;;;;;;;;;;5060114;28;20465;-78
2023/05/30 04:19:36;;;;;;;23.80;21.57;;;;;;;;;;5054257;28;20493;-78
2023/05/30 04:22:03;;;;;;;25.77;21.40;;;;;;;;;;5053956;28;20505;-77
2023/05/30 04:24:30;;;;;;;23.17;20.90;;;;;;;;;;5053727;28;20541;-78
2023/05/30 04:26:57;;;;;;;24.17;21.27;;;;;;;;;;5052522;28;20525;-78
2023/05/30 04:29:25;;;;;;;23.87;21.83;;;;;;;;;;5053580;28;20456;-79
2023/05/30 04:31:52;;;;;;;24.53;21.47;;;;;;;;;;5053692;28;20544;-78
2023/05/30 04:34:19;;;;;;;24.53;22.10;;;;;;;;;;5053827;28;20450;-79
2023/05/30 04:36:48;;;;;;;22.43;20.53;;;;;;;;;;5051652;28;20723;-77
2023/05/30 04:39:15;;;;;;;23.87;21.67;;;;;;;;;;5052778;28;20465;-78
2023/05/30 04:41:42;;;;;;;24.33;21.80;;;;;;;;;;5053275;28;20442;-78
2023/05/30 04:44:08;;;;;;;23.50;21.17;;;;;;;;;;5053265;28;21014;-78
2023/05/30 04:46:36;;;;;;;22.83;21.03;;;;;;;;;;5052865;28;20852;-78
2023/05/30 04:49:03;;;;;;;24.83;22.37;;;;;;;;;;5053828;28;20521;-79
2023/05/30 04:51:30;;;;;;;23.40;21.50;;;;;;;;;;5053709;28;20774;-78
2023/05/30 04:53:58;;;;;;;25.53;23.13;;;;;;;;;;5053853;28;20421;-78
2023/05/30 04:56:26;;;;;;;24.07;22.30;;;;;;;;;;5052517;28;20466;-77
2023/05/30 04:58:53;;;;;;;24.97;22.57;;;;;;;;;;5053833;28;20435;-78
2023/05/30 05:01:20;;;;;;;24.93;22.43;;;;;;;;;;5053630;28;20449;-78
2023/05/30 05:03:47;;;;;;;28.33;22.40;;;;;;;;;;5053791;28;20511;-78
2023/05/30 05:06:14;;;;;;;22.57;20.87;;;;;;;;;;5052996;28;20455;-78
2023/05/30 05:08:42;;;;;;;24.53;22.10;;;;;;;;;;5054040;28;20409;-78
2023/05/30 05:11:10;;;;;;;24.23;22.10;;;;;;;;;;5053650;28;20474;-78
2023/05/30 05:13:37;;;;;;;24.77;22.53;;;;;;;;;;5065207;28;20449;-78
2023/05/30 05:16:06;;;;;;;25.47;23.03;;;;;;;;;;5084069;28;20430;-79
2023/05/30 05:18:33;;;;;;;23.90;21.57;;;;;;;;;;5061244;28;20961;-81
2023/05/30 05:21:00;;;;;;;23.43;21.43;;;;;;;;;;5079181;28;20992;-80
2023/05/30 05:23:28;;;;;;;24.70;22.30;;;;;;;;;;5077707;28;20424;-80
2023/05/30 05:25:55;;;;;;;25.27;22.77;;;;;;;;;;5077346;28;20460;-80
2023/05/30 05:28:23;;;;;;;25.07;23.00;;;;;;;;;;5077313;28;20462;-80
2023/05/30 05:30:50;;;;;;;23.40;21.70;;;;;;;;;;5077698;28;20462;-80
2023/05/30 05:33:17;;;;;;;23.70;21.77;;;;;;;;;;5076884;28;20466;-81
2023/05/30 05:35:46;;;;;;;23.50;21.73;;;;;;;;;;5076929;28;20854;-78
2023/05/30 05:38:13;;;;;;;23.87;21.87;;;;;;;;;;5076546;28;20505;-79
2023/05/30 05:40:40;;;;;;;23.37;21.47;;;;;;;;;;5076462;28;20524;-79
2023/05/30 05:43:07;;;;;;;24.60;22.50;;;;;;;;;;5077508;28;20571;-80
2023/05/30 05:45:36;;;;;;;25.87;23.17;;;;;;;;;;5076914;28;20576;-79
2023/05/30 05:48:03;;;;;;;24.93;22.43;;;;;;;;;;5076786;28;20953;-79
2023/05/30 05:50:30;;;;;;;24.63;22.43;;;;;;;;;;5077068;28;20564;-79
2023/05/30 05:52:57;;;;;;;24.63;22.73;;;;;;;;;;5077167;28;20503;-80
2023/05/30 05:55:24;;;;;;;23.87;21.83;;;;;;;;;;5077221;28;20450;-80
2023/05/30 05:57:53;;;;;;;24.70;22.67;;;;;;;;;;5076475;28;20503;-80
2023/05/30 06:00:20;;;;;;;26.47;23.80;;;;;;;;;;5075855;28;20552;-79
2023/05/30 06:02:48;;;;;;;25.47;23.27;;;;;;;;;;5076909;28;20446;-78
2023/05/30 06:05:16;;;;;;;25.53;23.20;;;;;;;;;;5076709;28;20512;-81
2023/05/30 06:07:42;;;;;;;24.30;22.27;;;;;;;;;;5075844;28;20445;-80
2023/05/30 06:10:10;;;;;;;24.03;21.90;;;;;;;;;;5075772;28;20486;-79
2023/05/30 06:12:37;;;;;;;25.30;23.23;;;;;;;;;;5076828;28;20420;-80
2023/05/30 06:15:04;;;;;;;25.87;23.63;;;;;;;;;;5075980;28;20445;-78
2023/05/30 06:17:31;;;;;;;24.67;22.60;;;;;;;;;;5083541;28;20420;-79
2023/05/30 06:20:00;;;;;;;26.63;24.13;;;;;;;;;;5076509;28;20485;-78
2023/05/30 06:22:27;;;;;;;25.90;23.57;;;;;;;;;;5076292;28;20492;-83
2023/05/30 06:24:54;;;;;;;25.53;22.63;;;;;;;;;;5076901;28;20473;-80
2023/05/30 06:27:22;;;;;;;25.87;23.70;;;;;;;;;;5076438;28;20455;-79
2023/05/30 06:29:50;;;;;;;25.27;23.23;;;;;;;;;;5075475;28;20520;-78
2023/05/30 06:32:16;;;;;;;25.97;23.47;;;;;;;;;;5076169;28;20444;-79
2023/05/30 06:34:43;;;;;;;24.80;22.97;;;;;;;;;;5076406;28;20446;-80
2023/05/30 06:37:12;;;;;;;25.80;23.83;;;;;;;;;;5077457;28;20445;-79
2023/05/30 06:39:39;;;;;;;26.80;24.47;;;;;;;;;;5079505;28;20496;-83
2023/05/30 06:42:07;;;;;;;27.63;25.47;;;;;;;;;;5079357;28;20474;-79
2023/05/30 06:44:34;;;;;;;26.20;24.27;;;;;;;;;;5069137;28;20481;-79
2023/05/30 06:47:01;;;;;;;28.40;25.70;;;;;;;;;;5076285;28;20452;-79
2023/05/30 06:49:31;;;;;;;29.63;27.20;;;;;;;;;;5076812;28;20983;-82
2023/05/30 06:51:58;;;;;;;29.00;25.30;;;;;;;;;;5076945;28;20479;-82
2023/05/30 06:54:26;;;;;;;27.33;25.07;;;;;;;;;;5078540;28;20412;-79
2023/05/30 06:56:53;;;;;;;26.80;24.50;;;;;;;;;;5076412;28;20446;-80
2023/05/30 06:59:20;;;;;;;28.23;26.03;;;;;;;;;;5077506;28;20615;-80
2023/05/30 07:01:47;;;;;;;26.30;24.00;;;;;;;;;;5077478;28;20424;-79
2023/05/30 07:04:14;;;;;;;27.63;25.43;;;;;;;;;;5077070;28;20482;-79
2023/05/30 07:06:41;;;;;;;24.70;22.73;;;;;;;;;;5076543;28;20450;-80
2023/05/30 07:09:08;;;;;;;27.97;25.50;;;;;;;;;;5077221;28;20413;-78
2023/05/30 07:11:37;;;;;;;27.70;25.50;;;;;;;;;;5077172;28;20449;-79
2023/05/30 07:14:04;;;;;;;26.57;24.23;;;;;;;;;;5076152;28;20448;-80
2023/05/30 07:16:32;;;;;;;28.10;25.60;;;;;;;;;;5077805;28;20461;-79
2023/05/30 07:19:00;;;;;;;27.50;25.00;;;;;;;;;;5076124;28;20990;-83
2023/05/30 07:21:28;;;;;;;27.43;24.83;;;;;;;;;;5076420;28;20815;-81
2023/05/30 07:23:56;;;;;;;26.30;24.20;;;;;;;;;;5076011;28;20489;-81
2023/05/30 07:26:23;;;;;;;28.57;25.80;;;;;;;;;;5076063;28;20494;-78
2023/05/30 07:28:51;;;;;;;27.00;24.80;;;;;;;;;;5075212;28;20450;-75
2023/05/30 07:31:18;;;;;;;27.10;24.63;;;;;;;;;;5073375;28;20473;-77
2023/05/30 07:33:45;;;;;;;26.17;24.17;;;;;;;;;;5073553;28;20450;-76
2023/05/30 07:36:12;;;;;;;28.10;25.80;;;;;;;;;;5072323;28;20536;-75
2023/05/30 07:38:39;;;;;;;27.83;25.70;;;;;;;;;;5073334;28;20461;-75
2023/05/30 07:41:06;;;;;;;28.63;26.33;;;;;;;;;;5073554;28;20533;-81
2023/05/30 07:43:33;;;;;;;26.57;24.43;;;;;;;;;;5074211;28;20445;-78
2023/05/30 07:46:02;;;;;;;26.70;24.13;;;;;;;;;;5072092;28;20490;-77
2023/05/30 07:48:29;;;;;;;28.27;25.93;;;;;;;;;;5076411;28;20481;-79
2023/05/30 07:50:56;;;;;;;26.93;24.63;;;;;;;;;;5077472;28;20497;-76
2023/05/30 07:53:23;;;;;;;27.67;24.70;;;;;;;;;;5075035;28;20753;-79
2023/05/30 07:55:50;;;;;;;27.93;25.57;;;;;;;;;;5073068;28;20650;-77
2023/05/30 07:58:17;;;;;;;27.87;25.03;;;;;;;;;;5074246;28;20442;-77
2023/05/30 08:00:44;;;;;;;26.57;24.37;;;;;;;;;;5073804;28;20591;-77
2023/05/30 08:03:12;;;;;;;25.17;23.27;;;;;;;;;;5073841;28;20450;-77
2023/05/30 08:05:39;;;;;;;26.30;24.10;;;;;;;;;;5073158;28;20507;-78
2023/05/30 08:08:07;;;;;;;26.47;23.87;;;;;;;;;;5074001;28;20473;-77
2023/05/30 08:10:34;;;;;;;26.00;23.80;;;;;;;;;;5073233;28;20928;-78
2023/05/30 08:13:01;;;;;;;26.40;24.30;;;;;;;;;;5073792;28;20438;-77
2023/05/30 08:15:28;;;;;;;24.50;22.60;;;;;;;;;;5073618;28;20446;-77
2023/05/30 08:17:56;;;;;;;26.53;24.20;;;;;;;;;;5072909;28;20872;-78
2023/05/30 08:20:25;;;;;;;26.03;23.90;;;;;;;;;;5079090;28;20477;-77
2023/05/30 08:22:52;;;;;;;26.50;24.40;;;;;;;;;;5083344;28;20446;-77
2023/05/30 08:25:20;;;;;;;26.43;24.53;;;;;;;;;;5083704;28;20485;-77
2023/05/30 08:27:47;;;;;;;28.07;25.77;;;;;;;;;;5072913;28;20824;-78
2023/05/30 08:30:14;;;;;;;25.73;23.50;;;;;;;;;;5074038;28;20500;-80
2023/05/30 08:32:41;;;;;;;25.83;23.67;;;;;;;;;;5074408;28;20519;-78
2023/05/30 08:35:09;;;;;;;26.47;24.30;;;;;;;;;;5073956;28;20478;-77
2023/05/30 08:37:37;;;;;;;27.33;24.77;;;;;;;;;;5072617;28;20509;-80
2023/05/30 08:40:04;;;;;;;27.30;24.87;;;;;;;;;;5073863;28;20470;-77
2023/05/30 08:42:31;;;;;;;25.53;23.47;;;;;;;;;;5073867;28;20502;-79
2023/05/30 08:44:58;;;;;;;27.63;25.27;;;;;;;;;;5074193;28;20477;-80
2023/05/30 08:47:26;;;;;;;26.27;24.27;;;;;;;;;;5079509;28;20442;-79
2023/05/30 08:49:53;;;;;;;26.40;24.30;;;;;;;;;;5079993;28;20873;-77
2023/05/30 08:52:20;;;;;;;27.03;24.50;;;;;;;;;;5080183;28;20458;-77
2023/05/30 08:54:53;;;;;;;25.63;23.90;;;;;;;;;;5079619;28;20999;-77
2023/05/30 08:57:24;;;;;;;25.07;23.27;;;;;;;;;;5079510;28;20665;-77
2023/05/30 08:59:53;;;;;;;25.90;23.90;;;;;;;;;;5078936;28;20577;-78
2023/05/30 09:02:21;;;;;;;27.33;25.23;;;;;;;;;;5079539;28;20450;-78
2023/05/30 09:04:50;;;;;;;25.83;23.93;;;;;;;;;;5079970;28;20456;-79
2023/05/30 09:07:17;;;;;;;25.90;23.80;;;;;;;;;;5079064;28;20519;-79
2023/05/30 09:09:44;;;;;;;26.37;24.37;;;;;;;;;;5078254;28;20531;-78
2023/05/30 09:12:13;;;;;;;25.40;23.60;;;;;;;;;;5078767;28;20535;-77
2023/05/30 09:14:40;;;;;;;25.60;23.70;;;;;;;;;;5078011;28;20497;-77
2023/05/30 09:17:07;;;;;;;26.17;24.20;;;;;;;;;;5078971;28;20501;-78
2023/05/30 09:19:35;;;;;;;26.70;24.60;;;;;;;;;;5079290;28;20549;-78
2023/05/30 09:22:02;;;;;;;27.33;25.10;;;;;;;;;;5079880;28;20448;-77
2023/05/30 09:24:44;;;;;;;27.10;25.10;;;;;;;;;;5092858;28;20469;-76
2023/05/30 09:27:13;;;;;;;27.77;25.40;;;;;;;;;;5098867;28;20445;-82
2023/05/30 09:29:43;;;;;;;26.70;24.57;;;;;;;;;;5098209;28;20541;-76
2023/05/30 09:32:10;;;;;;;26.20;24.30;;;;;;;;;;5098326;28;21062;-77
2023/05/30 09:34:37;;;;;;;27.13;24.73;;;;;;;;;;5099052;28;20449;-76
2023/05/30 09:37:05;;;;;;;26.53;24.60;;;;;;;;;;5097777;28;20838;-76
2023/05/30 09:39:32;;;;;;;27.30;25.30;;;;;;;;;;5097498;28;20487;-76
2023/05/30 09:41:59;;;;;;;28.03;25.50;;;;;;;;;;5098974;28;20432;-76
2023/05/30 09:44:28;;;;;;;26.70;24.33;;;;;;;;;;5099556;28;20938;-82
2023/05/30 09:47:00;;;;;;;28.17;25.80;;;;;;;;;;5062819;28;20494;-77
2023/05/30 09:49:28;;;;;;;26.40;24.63;;;;;;;;;;5078644;28;20469;-78
2023/05/30 09:51:55;;;;;;;27.13;24.90;;;;;;;;;;5078315;28;20461;-77
2023/05/30 09:54:22;;;;;;;26.83;24.57;;;;;;;;;;5078732;28;20935;-77
2023/05/30 09:56:50;;;;;;;25.83;24.03;;;;;;;;;;5077232;28;20447;-77
2023/05/30 09:59:17;;;;;;;27.90;25.70;;;;;;;;;;5075398;28;20507;-77
2023/05/30 10:01:46;;;;;;;27.53;25.30;;;;;;;;;;5075428;28;20466;-77
2023/05/30 10:04:14;;;;;;;27.00;25.00;;;;;;;;;;5075107;28;20988;-76
2023/05/30 10:06:43;;;;;;;25.47;23.63;;;;;;;;;;5074844;28;20517;-75
2023/05/30 10:09:11;;;;;;;27.70;25.37;;;;;;;;;;5076100;28;20992;-78
2023/05/30 10:11:39;;;;;;;27.23;25.20;;;;;;;;;;5075378;28;20521;-76
2023/05/30 10:14:06;;;;;;;27.20;25.20;;;;;;;;;;5078184;28;20444;-79
2023/05/30 10:16:34;;;;;;;28.83;26.67;;;;;;;;;;5066249;28;20522;-80
2023/05/30 10:19:04;;;;;;;26.23;24.20;;;;;;;;;;5077480;28;20863;-80
2023/05/30 10:21:32;;;;;;;28.07;25.67;;;;;;;;;;5076764;28;20548;-81
2023/05/30 10:24:01;;;;;;;26.13;24.00;;;;;;;;;;5077126;28;20963;-80
2023/05/30 10:26:32;;;;;;;27.10;25.17;;;;;;;;;;5076652;28;20841;-82
2023/05/30 10:29:00;;;;;;;26.47;24.53;;;;;;;;;;5077116;28;20457;-81
2023/05/30 10:31:28;;;;;;;26.83;24.77;;;;;;;;;;5079494;28;20474;-82
2023/05/30 10:33:55;;;;;;;27.50;25.40;;;;;;;;;;5080214;28;20904;-83
2023/05/30 10:36:23;;;;;;;29.90;27.40;;;;;;;;;;5080200;28;20799;-83
2023/05/30 10:38:53;;;;;;;27.70;25.37;;;;;;;;;;5081816;28;20961;-81
2023/05/30 10:41:25;;;;;;;28.30;26.40;;;;;;;;;;5080806;28;20495;-81
2023/05/30 10:43:58;;;;;;;28.27;26.37;;;;;;;;;;5078046;28;20440;-83
2023/05/30 10:46:26;;;;;;;28.40;26.30;;;;;;;;;;5080395;28;20875;-82
2023/05/30 10:48:56;;;;;;;29.27;26.97;;;;;;;;;;5079066;28;20928;-86
2023/05/30 10:51:25;;;;;;;27.47;25.43;;;;;;;;;;5077741;28;20454;-83
2023/05/30 10:53:53;;;;;;;27.20;25.17;;;;;;;;;;5078144;28;20467;-83
2023/05/30 10:56:33;;;;;;;29.43;26.90;;;;;;;;;;5078625;28;20451;-82
2023/05/30 10:59:01;;;;;;;28.90;26.80;;;;;;;;;;5077100;28;20466;-80
2023/05/30 11:01:29;;;;;;;29.47;27.17;;;;;;;;;;5075562;28;20418;-77
2023/05/30 11:03:57;;;;;;;28.20;26.30;;;;;;;;;;5073969;28;20462;-76
2023/05/30 11:06:26;;;;;;;26.53;24.73;;;;;;;;;;5073390;28;20460;-76
2023/05/30 11:08:54;;;;;;;27.17;24.70;;;;;;;;;;5073260;28;20990;-74
2023/05/30 11:11:21;;;;;;;26.57;24.70;;;;;;;;;;5072824;28;20484;-77
2023/05/30 11:13:50;;;;;;;27.60;25.60;;;;;;;;;;5073861;28;20430;-74
2023/05/30 11:16:24;;;;;;;26.50;24.40;;;;;;;;;;5072654;28;20465;-74
2023/05/30 11:18:53;;;;;;;26.50;24.70;;;;;;;;;;5073948;28;20801;-74
2023/05/30 11:21:35;;;;;;;29.10;26.60;;;;;;;;;;5072906;28;20479;-74
2023/05/30 11:24:07;;;;;;;26.23;24.43;;;;;;;;;;5072771;28;20505;-74
2023/05/30 11:26:52;;;;;;;28.50;26.27;;;;;;;;;;5073341;28;20479;-80
2023/05/30 11:29:36;;;;;;;28.70;26.57;;;;;;;;;;5074075;28;20484;-75
2023/05/30 11:32:03;;;;;;;27.50;25.33;;;;;;;;;;5073749;28;20488;-75
2023/05/30 11:34:30;;;;;;;26.33;24.43;;;;;;;;;;5074461;28;20449;-75
2023/05/30 11:36:57;;;;;;;27.50;25.60;;;;;;;;;;5072451;28;20441;-75
2023/05/30 11:39:26;;;;;;;27.77;25.83;;;;;;;;;;5073238;28;20534;-75
2023/05/30 11:41:54;;;;;;;28.37;26.20;;;;;;;;;;5073450;28;20452;-76
2023/05/30 11:44:21;;;;;;;27.90;25.70;;;;;;;;;;5073504;28;20449;-75
2023/05/30 11:46:58;;;;;;;27.80;25.60;;;;;;;;;;5072316;28;20915;-75
2023/05/30 11:49:25;;;;;;;25.10;23.57;;;;;;;;;;5073515;28;20794;-75
2023/05/30 11:51:53;;;;;;;27.20;25.20;;;;;;;;;;5073376;28;20452;-76
2023/05/30 11:54:20;;;;;;;26.77;24.90;;;;;;;;;;5073412;28;20463;-76
2023/05/30 11:56:50;;;;;;;26.63;24.80;;;;;;;;;;5072598;28;20525;-75
2023/05/30 11:59:20;;;;;;;25.60;23.60;;;;;;;;;;5073620;28;20428;-75
2023/05/30 12:01:57;;;;;;;26.43;24.50;;;;;;;;;;5074298;28;20443;-76
2023/05/30 12:04:26;;;;;;;27.63;25.57;;;;;;;;;;5074669;28;20446;-79
2023/05/30 12:06:53;;;;;;;25.73;24.13;;;;;;;;;;5073073;28;20484;-76
2023/05/30 12:09:23;;;;;;;25.17;23.30;;;;;;;;;;5072407;28;21033;-76
2023/05/30 12:11:59;;;;;;;26.70;24.80;;;;;;;;;;5072972;28;20830;-76
2023/05/30 12:14:29;;;;;;;26.73;24.87;;;;;;;;;;5073447;28;20424;-75
2023/05/30 12:16:57;;;;;;;25.83;24.07;;;;;;;;;;5072682;28;20925;-75
2023/05/30 12:19:28;;;;;;;25.50;23.83;;;;;;;;;;5076240;28;20535;-75
2023/05/30 12:21:55;;;;;;;24.77;23.30;;;;;;;;;;5077404;28;20444;-76
2023/05/30 12:24:23;;;;;;;25.90;24.20;;;;;;;;;;5077941;28;20426;-75
2023/05/30 12:26:50;;;;;;;24.33;22.90;;;;;;;;;;5076262;28;20918;-76
2023/05/30 12:29:19;;;;;;;24.60;23.10;;;;;;;;;;5076616;28;20427;-77
2023/05/30 12:31:48;;;;;;;25.07;23.47;;;;;;;;;;5075422;28;20793;-76
2023/05/30 12:34:15;;;;;;;23.80;22.30;;;;;;;;;;5075085;28;20502;-75
2023/05/30 12:36:42;;;;;;;26.67;24.97;;;;;;;;;;5073652;28;20441;-75
2023/05/30 12:39:09;;;;;;;25.10;23.70;;;;;;;;;;5073775;28;20932;-77
2023/05/30 12:41:40;;;;;;;25.03;23.23;;;;;;;;;;5073937;28;20472;-75
2023/05/30 12:44:07;;;;;;;25.07;23.53;;;;;;;;;;5076140;28;20399;-74
2023/05/30 12:46:38;;;;;;;24.67;22.93;;;;;;;;;;5077157;28;20496;-77
2023/05/30 12:49:05;;;;;;;26.03;24.33;;;;;;;;;;5076180;28;20471;-76
2023/05/30 12:51:33;;;;;;;26.13;24.63;;;;;;;;;;5076704;28;20476;-75
2023/05/30 12:54:00;;;;;;;24.27;22.60;;;;;;;;;;5076049;28;20452;-75
2023/05/30 12:56:28;;;;;;;23.67;22.17;;;;;;;;;;5075999;28;20470;-75
2023/05/30 12:58:55;;;;;;;25.00;23.27;;;;;;;;;;5074964;28;20925;-75
2023/05/30 13:01:22;;;;;;;24.47;22.87;;;;;;;;;;5074763;28;20487;-75
2023/05/30 13:03:50;;;;;;;24.87;23.23;;;;;;;;;;5074048;28;20460;-76
2023/05/30 13:06:17;;;;;;;23.97;22.17;;;;;;;;;;5072283;28;20988;-76
2023/05/30 13:08:44;;;;;;;25.07;23.50;;;;;;;;;;5073405;28;20460;-75
2023/05/30 13:11:11;;;;;;;23.30;21.73;;;;;;;;;;5072672;28;20571;-76
2023/05/30 13:13:39;;;;;;;24.10;22.77;;;;;;;;;;5072270;28;20468;-77
2023/05/30 13:16:06;;;;;;;26.00;24.37;;;;;;;;;;5072312;28;20848;-77
2023/05/30 13:18:33;;;;;;;24.03;22.73;;;;;;;;;;5072477;28;20937;-77
2023/05/30 13:21:01;;;;;;;25.50;23.83;;;;;;;;;;5072264;28;20442;-77
2023/05/30 13:23:28;;;;;;;24.63;23.10;;;;;;;;;;5072466;28;20427;-77
2023/05/30 13:25:55;;;;;;;24.23;22.83;;;;;;;;;;5071742;28;20883;-77
2023/05/30 13:28:22;;;;;;;25.40;23.80;;;;;;;;;;5072262;28;20449;-76
2023/05/30 13:30:49;;;;;;;23.80;22.17;;;;;;;;;;5072344;28;20468;-77
2023/05/30 13:33:16;;;;;;;25.77;24.20;;;;;;;;;;5073665;28;21140;-77
2023/05/30 13:35:43;;;;;;;24.33;22.80;;;;;;;;;;5075583;28;20452;-77
2023/05/30 13:38:11;;;;;;;23.77;22.27;;;;;;;;;;5076010;28;20457;-77
2023/05/30 13:40:38;;;;;;;23.80;22.07;;;;;;;;;;5076049;28;20480;-77
2023/05/30 13:43:05;;;;;;;24.13;22.60;;;;;;;;;;5075619;28;20462;-77
2023/05/30 13:45:32;;;;;;;24.13;22.73;;;;;;;;;;5075373;28;20431;-77
2023/05/30 13:47:59;;;;;;;24.73;23.10;;;;;;;;;;5075839;28;20451;-77
2023/05/30 13:50:26;;;;;;;24.50;23.10;;;;;;;;;;5075867;28;20480;-77
2023/05/30 13:52:53;;;;;;;24.27;22.77;;;;;;;;;;5075319;28;20472;-76
2023/05/30 13:55:21;;;;;;;26.97;24.97;;;;;;;;;;5075780;28;20424;-80
2023/05/30 13:57:49;;;;;;;25.47;23.87;;;;;;;;;;5075419;28;20419;-77
2023/05/30 14:00:17;;;;;;;24.00;22.30;;;;;;;;;;5075468;28;20509;-77
2023/05/30 14:02:44;;;;;;;23.40;21.87;;;;;;;;;;5075392;28;20449;-77
2023/05/30 14:05:11;;;;;;;24.80;23.40;;;;;;;;;;5075637;28;20953;-76
2023/05/30 14:07:38;;;;;;;25.40;23.70;;;;;;;;;;5074953;28;20488;-78
2023/05/30 14:10:05;;;;;;;25.17;23.47;;;;;;;;;;5075979;28;20511;-77
2023/05/30 14:12:34;;;;;;;24.80;23.30;;;;;;;;;;5075920;28;20424;-78
2023/05/30 14:15:01;;;;;;;27.10;24.77;;;;;;;;;;5075226;28;20447;-76
2023/05/30 14:17:28;;;;;;;25.40;23.60;;;;;;;;;;5075122;28;20442;-77
2023/05/30 14:19:55;;;;;;;25.67;24.00;;;;;;;;;;5075579;28;20469;-77